Time;durP1;ratioP1;P1;durP2;ratioP2;P2;SDS_P1;SDS_P2;PMS_P1;PMS_P2;Temp;Humidity;BMP_temperature;BMP_pressure;BME280_temperature;BME280_humidity;BME280_pressure;Samples;Min_cycle;Max_cycle;Signal;HPM_P1;HPM_P2
2024/02/11 00:03:46;;;;;;;1999.90;999.90;;;;;;;10.10;100.00;98591.13;10219219;29;20082;-68
2024/02/11 00:08:49;;;;;;;1999.90;999.90;;;;;;;10.00;100.00;98585.94;10217567;29;20074;-68
2024/02/11 00:13:52;;;;;;;1999.90;999.90;;;;;;;10.18;100.00;98590.44;10201870;29;20491;-68
2024/02/11 00:18:54;;;;;;;1999.90;999.90;;;;;;;10.12;100.00;98583.16;10218466;29;20563;-68
2024/02/11 00:23:58;;;;;;;1999.90;999.90;;;;;;;10.23;100.00;98581.22;10219323;29;20085;-68
2024/02/11 00:29:01;;;;;;;1999.90;999.90;;;;;;;10.09;100.00;98581.66;10218091;29;20131;-68
2024/02/11 00:34:05;;;;;;;1999.90;999.90;;;;;;;9.93;100.00;98592.66;10218885;29;20096;-68
2024/02/11 00:39:07;;;;;;;1999.90;999.90;;;;;;;10.29;100.00;98585.06;10217459;29;20059;-68
2024/02/11 00:44:10;;;;;;;1999.90;999.90;;;;;;;10.31;100.00;98582.31;10217505;29;20376;-68
2024/02/11 00:49:13;;;;;;;1999.90;999.90;;;;;;;10.19;100.00;98584.25;10217938;29;20051;-68
2024/02/11 00:54:15;;;;;;;1999.90;999.90;;;;;;;10.31;100.00;98577.09;10231195;23;20051;-68
2024/02/11 00:59:18;;;;;;;1999.90;999.90;;;;;;;10.31;100.00;98571.84;10216998;29;20052;-68
2024/02/11 01:04:20;;;;;;;1999.90;999.90;;;;;;;10.38;100.00;98571.16;10217385;29;20058;-68
2024/02/11 01:09:22;;;;;;;1999.90;999.90;;;;;;;10.23;100.00;98575.97;10216911;29;20550;-67
2024/02/11 01:14:25;;;;;;;1999.90;999.90;;;;;;;10.38;100.00;98571.16;10216297;29;20484;-68
2024/02/11 01:19:27;;;;;;;1999.90;999.90;;;;;;;10.22;100.00;98578.72;10216085;29;20090;-66
2024/02/11 01:24:30;;;;;;;1999.90;999.90;;;;;;;9.98;100.00;98579.19;10216692;29;20055;-68
2024/02/11 01:29:32;;;;;;;1999.90;999.90;;;;;;;10.23;100.00;98567.31;10215832;29;20077;-65
2024/02/11 01:34:34;;;;;;;1999.90;999.90;;;;;;;10.26;100.00;98579.31;10214412;29;20411;-66
2024/02/11 01:39:38;;;;;;;1999.90;999.90;;;;;;;10.26;100.00;98568.84;10214369;29;20389;-66
2024/02/11 01:44:40;;;;;;;1999.90;999.90;;;;;;;10.34;100.00;98566.34;10215362;29;20048;-66
2024/02/11 01:49:43;;;;;;;1999.90;999.90;;;;;;;10.13;100.00;98572.56;10215773;29;20074;-66
2024/02/11 01:54:45;;;;;;;1999.90;999.90;;;;;;;10.00;100.00;98577.25;10214820;29;20488;-65
2024/02/11 01:59:48;;;;;;;1999.90;999.90;;;;;;;10.35;100.00;98568.81;10215426;29;20062;-66
2024/02/11 02:04:52;;;;;;;1999.90;999.90;;;;;;;10.28;100.00;98577.38;10215266;29;20140;-65
2024/02/11 02:09:55;;;;;;;1999.90;999.90;;;;;;;10.10;100.00;98572.81;10215131;29;20110;-67
2024/02/11 02:14:58;;;;;;;1999.90;999.90;;;;;;;10.06;100.00;98568.84;10213185;29;20399;-66
2024/02/11 02:20:00;;;;;;;1999.90;999.90;;;;;;;10.36;100.00;98560.03;10214893;29;20081;-65
2024/02/11 02:25:04;;;;;;;1999.90;999.90;;;;;;;10.45;100.00;98549.69;10214841;29;20051;-65
2024/02/11 02:30:07;;;;;;;1999.90;999.90;;;;;;;10.45;100.00;98557.53;10213729;29;20052;-66
2024/02/11 02:35:09;;;;;;;1999.90;999.90;;;;;;;10.26;100.00;98548.72;10213384;29;20075;-66
2024/02/11 02:40:12;;;;;;;1999.90;999.90;;;;;;;10.32;100.00;98549.97;10212776;29;20183;-66
2024/02/11 02:45:14;;;;;;;1999.90;999.90;;;;;;;10.25;100.00;98543.63;10214463;29;20044;-66
2024/02/11 02:50:17;;;;;;;1999.90;999.90;;;;;;;10.47;100.00;98538.09;10213718;29;20487;-65
2024/02/11 02:55:20;;;;;;;1999.90;999.90;;;;;;;10.52;100.00;98546.38;10213957;29;20056;-66
2024/02/11 03:00:23;;;;;;;1999.90;999.90;;;;;;;10.20;100.00;98539.66;10213568;29;20539;-68
2024/02/11 03:05:26;;;;;;;1999.90;999.90;;;;;;;10.35;100.00;98540.06;10213496;29;20506;-66
2024/02/11 03:10:29;;;;;;;1999.90;999.90;;;;;;;10.27;100.00;98534.69;10213453;29;20418;-66
2024/02/11 03:15:32;;;;;;;1999.90;999.90;;;;;;;10.23;100.00;98522.84;10213861;29;20048;-66
2024/02/11 03:20:35;;;;;;;1999.90;999.90;;;;;;;10.21;100.00;98517.75;10212167;29;20521;-66
2024/02/11 03:25:38;;;;;;;1999.90;999.90;;;;;;;10.08;100.00;98517.25;10214241;29;20127;-66
2024/02/11 03:30:41;;;;;;;1999.90;999.90;;;;;;;9.87;100.00;98525.28;10213543;29;20082;-66
2024/02/11 03:35:45;;;;;;;1999.90;999.90;;;;;;;9.86;100.00;98534.06;10213488;29;20107;-66
2024/02/11 03:40:47;;;;;;;1999.90;999.90;;;;;;;9.67;100.00;98533.09;10214867;29;20107;-66
2024/02/11 03:45:50;;;;;;;1999.90;999.90;;;;;;;9.74;100.00;98530.78;10220341;29;20047;-66
2024/02/11 03:50:53;;;;;;;1999.90;999.90;;;;;;;9.71;100.00;98532.84;10220201;29;20090;-66
2024/02/11 03:55:55;;;;;;;1999.90;999.90;;;;;;;9.79;100.00;98532.97;10218295;29;20229;-65
2024/02/11 04:00:57;;;;;;;1999.90;999.90;;;;;;;9.75;100.00;98537.66;10218081;29;20067;-65
2024/02/11 04:06:01;;;;;;;1999.90;999.90;;;;;;;9.70;100.00;98542.47;10218765;29;20047;-65
2024/02/11 04:11:04;;;;;;;1999.90;999.90;;;;;;;9.62;100.00;98542.34;10219482;29;20047;-65
2024/02/11 04:16:11;;;;;;;1999.90;999.90;;;;;;;9.69;100.00;98547.84;10218532;29;20495;-65
2024/02/11 04:21:15;;;;;;;1999.90;999.90;;;;;;;9.48;100.00;98548.75;10219114;29;20054;-65
2024/02/11 04:26:18;;;;;;;1999.90;999.90;;;;;;;9.46;100.00;98551.53;10218762;29;20056;-65
2024/02/11 04:31:21;;;;;;;1999.90;999.90;;;;;;;9.40;100.00;98548.63;10216935;29;20500;-65
2024/02/11 04:36:24;;;;;;;1999.90;999.90;;;;;;;9.41;100.00;98548.47;10218370;29;20048;-68
2024/02/11 04:41:27;;;;;;;1999.90;999.90;;;;;;;9.27;100.00;98552.31;10217667;29;20411;-68
2024/02/11 04:46:29;;;;;;;1999.90;999.90;;;;;;;9.34;100.00;98549.16;10218115;29;20139;-68
2024/02/11 04:51:31;;;;;;;1999.90;999.90;;;;;;;9.27;100.00;98546.28;10217793;29;20048;-68
2024/02/11 04:56:35;;;;;;;1999.90;999.90;;;;;;;9.15;100.00;98547.34;10217357;29;20048;-68
2024/02/11 05:01:37;;;;;;;1999.90;999.90;;;;;;;9.40;100.00;98551.25;10217575;29;20094;-68
2024/02/11 05:06:40;;;;;;;1999.90;999.90;;;;;;;9.59;100.00;98560.88;10216788;29;20574;-68
2024/02/11 05:11:45;;;;;;;1999.90;999.90;;;;;;;9.37;100.00;98575.03;10217164;29;20052;-68
2024/02/11 05:16:47;;;;;;;1999.90;999.90;;;;;;;9.48;100.00;98585.31;10216904;29;20099;-69
2024/02/11 05:21:50;;;;;;;1999.90;999.90;;;;;;;9.49;100.00;98585.19;10215610;29;20132;-68
2024/02/11 05:26:52;;;;;;;1999.90;999.90;;;;;;;9.36;100.00;98582.00;10217182;29;20047;-68
2024/02/11 05:31:54;;;;;;;1999.90;999.90;;;;;;;9.70;100.00;98583.44;10215800;29;20555;-68
2024/02/11 05:36:59;;;;;;;1999.90;999.90;;;;;;;9.46;100.00;98595.09;10216161;29;20052;-68
2024/02/11 05:42:09;;;;;;;1999.90;999.90;;;;;;;9.58;100.00;98588.81;10216655;29;20048;-66
2024/02/11 05:47:11;;;;;;;1999.90;999.90;;;;;;;9.74;100.00;98588.25;10214857;29;20134;-65
2024/02/11 05:52:14;;;;;;;1999.90;999.90;;;;;;;9.61;100.00;98592.91;10215533;29;20052;-66
2024/02/11 05:57:17;;;;;;;1999.90;999.90;;;;;;;9.61;100.00;98588.50;10215538;29;20107;-66
2024/02/11 06:02:19;;;;;;;1999.90;999.90;;;;;;;9.68;100.00;98594.03;10215431;29;20056;-66
2024/02/11 06:07:21;;;;;;;1999.90;999.90;;;;;;;9.98;100.00;98594.88;10214715;29;20100;-66
2024/02/11 06:12:24;;;;;;;1999.90;999.90;;;;;;;9.89;100.00;98599.13;10215155;29;20059;-65
2024/02/11 06:17:26;;;;;;;1999.90;999.90;;;;;;;9.86;100.00;98605.44;10215249;29;20047;-65
2024/02/11 06:22:29;;;;;;;1999.90;999.90;;;;;;;9.97;100.00;98614.97;10214911;29;20062;-65
2024/02/11 06:27:32;;;;;;;1999.90;999.90;;;;;;;10.23;100.00;98630.91;10214779;29;20051;-66
2024/02/11 06:32:38;;;;;;;1999.90;999.90;;;;;;;9.73;100.00;98658.94;10214643;29;20054;-65
2024/02/11 06:37:42;;;;;;;1999.90;999.90;;;;;;;9.51;100.00;98666.03;10212822;29;20476;-65
2024/02/11 06:42:50;;;;;;;1999.90;999.90;;;;;;;9.42;100.00;98685.13;10213360;29;20047;-65
2024/02/11 06:47:53;;;;;;;1999.90;999.90;;;;;;;9.17;100.00;98694.25;10212669;29;20404;-66
2024/02/11 06:52:56;;;;;;;1999.90;999.90;;;;;;;9.22;100.00;98718.19;10214072;29;20062;-66
2024/02/11 06:57:59;;;;;;;1999.90;999.90;;;;;;;9.09;100.00;98713.16;10214217;29;20073;-66
2024/02/11 07:03:03;;;;;;;1999.90;999.90;;;;;;;8.83;100.00;98728.41;10214171;29;20060;-66
2024/02/11 07:08:10;;;;;;;1999.90;999.90;;;;;;;8.86;100.00;98735.97;10214035;29;20103;-66
2024/02/11 07:13:12;;;;;;;1999.90;999.90;;;;;;;8.69;100.00;98769.50;10214017;29;20055;-65
2024/02/11 07:18:16;;;;;;;1999.90;999.90;;;;;;;8.51;100.00;98769.22;10219435;29;20054;-66
2024/02/11 07:23:20;;;;;;;1999.90;999.90;;;;;;;8.38;100.00;98781.56;10221310;29;20059;-65
2024/02/11 07:28:22;;;;;;;1999.90;999.90;;;;;;;8.51;100.00;98781.44;10220996;29;20435;-65
2024/02/11 07:33:25;;;;;;;1999.90;999.90;;;;;;;8.46;100.00;98789.63;10220910;29;20058;-66
2024/02/11 07:38:27;;;;;;;1999.90;999.90;;;;;;;8.35;100.00;98813.09;10220650;29;20052;-65
2024/02/11 07:43:30;;;;;;;1999.90;999.90;;;;;;;8.49;100.00;98822.44;10219942;29;20419;-66
2024/02/11 07:48:32;;;;;;;1999.90;999.90;;;;;;;8.13;100.00;98830.44;10203955;29;20052;-65
2024/02/11 07:53:35;;;;;;;1999.90;999.90;;;;;;;8.29;100.00;98839.66;10219426;29;20545;-66
2024/02/11 07:58:37;;;;;;;1999.90;999.90;;;;;;;8.44;100.00;98833.25;10218702;29;20052;-65
2024/02/11 08:03:40;;;;;;;1999.90;999.90;;;;;;;8.33;100.00;98833.25;10219801;29;20184;-65
2024/02/11 08:08:43;;;;;;;1999.90;999.90;;;;;;;8.71;100.00;98843.25;10219570;29;20056;-66
2024/02/11 08:13:46;;;;;;;1999.90;999.90;;;;;;;8.55;100.00;98848.03;10219265;29;20514;-69
2024/02/11 08:18:55;;;;;;;1999.90;999.90;;;;;;;8.81;100.00;98859.00;10218058;29;20052;-68
2024/02/11 08:23:57;;;;;;;1999.90;999.90;;;;;;;9.01;100.00;98873.03;10218299;29;20055;-68
2024/02/11 08:29:01;;;;;;;1999.90;999.90;;;;;;;8.91;100.00;98878.19;10217615;29;20408;-68
2024/02/11 08:34:04;;;;;;;1999.90;999.90;;;;;;;9.06;100.00;98881.31;10218009;29;20055;-69
2024/02/11 08:39:06;;;;;;;1999.90;999.90;;;;;;;8.86;100.00;98903.81;10218355;29;20047;-68
2024/02/11 08:44:09;;;;;;;1999.90;999.90;;;;;;;9.21;100.00;98905.34;10217836;29;20051;-68
2024/02/11 08:49:14;;;;;;;1999.90;999.90;;;;;;;9.00;100.00;98904.50;10218319;29;20051;-68
2024/02/11 08:54:17;;;;;;;1999.90;999.90;;;;;;;8.82;100.00;98906.78;10217469;29;20058;-66
2024/02/11 08:59:19;;;;;;;1999.90;999.90;;;;;;;8.81;100.00;98907.72;10217039;29;20475;-68
2024/02/11 09:04:23;;;;;;;1999.90;999.90;;;;;;;9.16;100.00;98897.03;10217842;29;20064;-68
2024/02/11 09:09:26;;;;;;;1999.90;999.90;;;;;;;9.05;100.00;98897.94;10217922;29;20075;-68
2024/02/11 09:14:31;;;;;;;1999.90;999.90;;;;;;;9.21;100.00;98899.28;10217156;29;20087;-68
2024/02/11 09:19:33;;;;;;;1999.90;999.90;;;;;;;8.91;100.00;98922.53;10215039;29;20052;-68
2024/02/11 09:24:38;;;;;;;1999.90;999.90;;;;;;;9.27;100.00;98927.50;10215617;29;20059;-66
2024/02/11 09:29:41;;;;;;;1999.90;999.90;;;;;;;9.15;100.00;98931.97;10215919;29;20055;-66
2024/02/11 09:34:43;;;;;;;1999.90;999.90;;;;;;;9.13;100.00;98931.25;10215792;29;20056;-66
2024/02/11 09:39:46;;;;;;;1999.90;999.90;;;;;;;9.29;100.00;98939.47;10214628;29;20499;-68
2024/02/11 09:44:52;;;;;;;1999.90;999.90;;;;;;;9.55;100.00;98943.50;10216010;29;20054;-69
2024/02/11 09:49:56;;;;;;;1999.90;999.90;;;;;;;9.52;100.00;98947.22;10214738;29;20122;-66
2024/02/11 09:54:59;;;;;;;1999.90;999.90;;;;;;;9.62;100.00;98947.31;10213988;29;20059;-66
2024/02/11 10:00:01;;;;;;;1999.90;999.90;;;;;;;9.72;100.00;98956.03;10214146;29;20057;-66
2024/02/11 10:05:11;;;;;;;1999.90;999.90;;;;;;;9.42;100.00;98964.63;10213584;29;20055;-66
2024/02/11 10:10:15;;;;;;;1999.90;999.90;;;;;;;9.45;100.00;98970.41;10214701;29;20107;-66
2024/02/11 10:15:20;;;;;;;1999.90;999.90;;;;;;;9.64;100.00;98972.34;10213937;29;20051;-66
2024/02/11 10:20:22;;;;;;;1999.90;999.90;;;;;;;9.77;100.00;98980.00;10214974;29;20060;-66
2024/02/11 10:25:27;;;;;;;1999.90;999.90;;;;;;;9.69;100.00;98985.03;10214897;29;20086;-66
2024/02/11 10:30:30;;;;;;;1999.90;999.90;;;;;;;9.63;100.00;98996.81;10214761;29;20059;-66
2024/02/11 10:35:33;;;;;;;1999.90;999.90;;;;;;;9.52;100.00;99002.09;10213541;29;20061;-66
2024/02/11 10:40:36;;;;;;;1999.90;999.90;;;;;;;9.86;100.00;99001.91;10213428;29;20055;-66
2024/02/11 10:45:39;;;;;;;1999.90;999.90;;;;;;;9.83;100.00;98999.56;10214615;29;20043;-66
2024/02/11 10:50:41;;;;;;;1999.90;999.90;;;;;;;9.45;100.00;99021.84;10216917;29;20127;-66
2024/02/11 10:55:45;;;;;;;1999.90;999.90;;;;;;;9.53;100.00;99015.97;10220925;29;20060;-66
2024/02/11 11:00:51;;;;;;;1999.90;999.90;;;;;;;9.92;100.00;99016.25;10220341;29;20081;-66
2024/02/11 11:05:58;;;;;;;1999.90;999.90;;;;;;;10.03;100.00;99014.41;10220897;29;20090;-67
2024/02/11 11:11:01;;;;;;;1999.90;999.90;;;;;;;9.98;100.00;99016.56;10221140;29;20419;-66
2024/02/11 11:16:08;;;;;;;1999.90;999.90;;;;;;;10.03;100.00;99006.56;10220302;29;20086;-66
2024/02/11 11:21:10;;;;;;;1999.90;999.90;;;;;;;10.25;100.00;99011.78;10220809;29;20468;-66
2024/02/11 11:26:13;;;;;;;1999.90;999.90;;;;;;;10.32;100.00;99007.72;10219829;29;20055;-68
2024/02/11 11:31:17;;;;;;;1999.90;999.90;;;;;;;9.99;100.00;99009.59;10219215;29;20052;-68
2024/02/11 11:36:24;;;;;;;1999.90;999.90;;;;;;;9.87;100.00;99003.59;10220151;29;20485;-66
2024/02/11 11:41:26;;;;;;;1999.90;999.90;;;;;;;10.10;100.00;99017.34;10219486;29;20060;-66
2024/02/11 11:46:30;;;;;;;1999.90;999.90;;;;;;;10.05;100.00;99011.66;10220497;29;20130;-66
2024/02/11 11:51:32;;;;;;;1999.90;999.90;;;;;;;10.23;100.00;99002.28;10218514;29;20389;-66
2024/02/11 11:56:37;;;;;;;1999.90;999.90;;;;;;;10.39;100.00;99006.25;10219294;29;20062;-66
2024/02/11 12:01:39;;;;;;;1999.90;999.90;;;;;;;10.44;100.00;99008.47;10218940;29;20060;-66
2024/02/11 12:06:42;;;;;;;1999.90;999.90;;;;;;;10.23;100.00;99004.88;10220192;29;20044;-66
2024/02/11 12:11:47;;;;;;;1999.90;999.90;;;;;;;10.39;100.00;99004.47;10219411;29;20415;-66
2024/02/11 12:16:50;;;;;;;1999.90;999.90;;;;;;;10.41;100.00;99004.34;10217549;29;20048;-66
2024/02/11 12:21:53;;;;;;;1999.90;999.90;;;;;;;10.40;100.00;99005.28;10217862;29;20059;-66
2024/02/11 12:26:59;;;;;;;1999.90;999.90;;;;;;;10.67;100.00;99006.50;10218361;29;20055;-66
2024/02/11 12:32:03;;;;;;;1999.90;999.90;;;;;;;10.75;100.00;99020.56;10217690;29;20054;-66
2024/02/11 12:37:06;;;;;;;1999.90;999.90;;;;;;;10.59;100.00;99009.75;10218580;29;20070;-66
2024/02/11 12:42:09;;;;;;;1999.90;999.90;;;;;;;11.15;100.00;99013.66;10218941;29;20063;-66
2024/02/11 12:47:13;;;;;;;1999.90;999.90;;;;;;;11.23;100.00;99018.19;10218272;29;20058;-66
2024/02/11 12:52:16;;;;;;;1999.90;999.90;;;;;;;10.94;100.00;99024.22;10218159;29;20060;-66
2024/02/11 12:57:19;;;;;;;1999.90;999.90;;;;;;;10.95;100.00;99031.13;10217078;29;20522;-66
2024/02/11 13:02:21;;;;;;;1999.90;999.90;;;;;;;11.22;100.00;99020.00;10216496;29;20051;-66
2024/02/11 13:07:24;;;;;;;1999.90;999.90;;;;;;;10.85;100.00;99027.66;10225108;23;20059;-66
2024/02/11 13:12:27;;;;;;;1999.90;999.90;;;;;;;11.18;100.00;99031.72;10217175;29;20134;-65
2024/02/11 13:17:29;;;;;;;1999.90;999.90;;;;;;;11.03;100.00;99031.28;10215232;29;20062;-66
2024/02/11 13:22:33;;;;;;;1999.90;999.90;;;;;;;10.95;100.00;99031.13;10216883;29;20052;-66
2024/02/11 13:27:37;;;;;;;1999.90;999.90;;;;;;;10.78;100.00;99035.19;10216073;29;20439;-65
2024/02/11 13:32:42;;;;;;;1999.90;999.90;;;;;;;10.91;100.00;99037.56;10215438;29;20077;-68
2024/02/11 13:37:45;;;;;;;1999.90;999.90;;;;;;;10.91;100.00;99045.41;10215147;29;20051;-68
2024/02/11 13:42:47;;;;;;;1999.90;999.90;;;;;;;11.38;100.00;99034.34;10216075;29;20085;-66
2024/02/11 13:47:50;;;;;;;1999.90;999.90;;;;;;;11.16;100.00;99033.63;10216048;29;20047;-65
2024/02/11 13:52:53;;;;;;;1999.90;999.90;;;;;;;11.12;100.00;99037.50;10215908;29;20055;-66
2024/02/11 13:57:56;;;;;;;1999.90;999.90;;;;;;;11.26;100.00;99039.75;10215008;29;20055;-65
2024/02/11 14:02:58;;;;;;;1999.90;999.90;;;;;;;11.44;100.00;99039.06;10215519;29;20074;-66
2024/02/11 14:08:03;;;;;;;1999.90;999.90;;;;;;;11.73;100.00;99046.94;10215027;29;20065;-65
2024/02/11 14:13:06;;;;;;;1999.90;999.90;;;;;;;11.19;100.00;99050.88;10215245;29;20104;-66
2024/02/11 14:18:11;;;;;;;1999.90;999.90;;;;;;;11.39;100.00;99055.19;10214417;29;20398;-65
2024/02/11 14:23:13;;;;;;;1999.90;999.90;;;;;;;10.88;100.00;99069.28;10213928;29;20128;-65
2024/02/11 14:28:18;;;;;;;1999.90;999.90;;;;;;;11.63;100.00;99067.91;10214370;29;20043;-65
2024/02/11 14:33:20;;;;;;;1999.90;999.90;;;;;;;11.48;100.00;99077.13;10214177;29;20048;-66
2024/02/11 14:38:23;;;;;;;1999.90;999.90;;;;;;;11.12;100.00;99082.84;10214604;29;20114;-65
2024/02/11 14:43:26;;;;;;;1999.90;999.90;;;;;;;11.31;100.00;99091.72;10214171;29;20403;-65
2024/02/11 14:48:29;;;;;;;1999.90;999.90;;;;;;;11.45;100.00;99088.72;10213754;29;20402;-65
2024/02/11 14:53:32;;;;;;;1999.90;999.90;;;;;;;10.94;100.00;99095.75;10213742;29;20495;-65
2024/02/11 14:58:34;;;;;;;1999.90;999.90;;;;;;;10.78;100.00;99098.03;10214238;29;20059;-66
2024/02/11 15:03:40;;;;;;;1999.90;999.90;;;;;;;10.59;100.00;99101.34;10213142;29;20131;-65
2024/02/11 15:08:43;;;;;;;1999.90;999.90;;;;;;;10.56;99.27;99106.88;10214013;29;20052;-66
2024/02/11 15:13:49;;;;;;;1999.90;999.90;;;;;;;10.64;98.98;99108.81;10214080;29;20051;-65
2024/02/11 15:18:52;;;;;;;1999.90;999.90;;;;;;;10.96;97.69;99112.16;10213610;29;20079;-65
2024/02/11 15:23:54;;;;;;;1999.90;999.90;;;;;;;10.58;97.19;99116.22;10213854;29;20511;-65
2024/02/11 15:28:56;;;;;;;1999.90;999.90;;;;;;;10.60;98.70;99122.16;10213797;29;20131;-65
2024/02/11 15:34:02;;;;;;;1999.90;999.90;;;;;;;10.53;96.92;99125.44;10213705;29;20047;-66
2024/02/11 15:39:06;;;;;;;1999.90;999.90;;;;;;;10.57;98.78;99135.53;10219306;29;20051;-66
2024/02/11 15:44:09;;;;;;;1999.90;999.90;;;;;;;10.75;96.49;99135.75;10220751;29;20143;-65
2024/02/11 15:49:12;;;;;;;1999.90;999.90;;;;;;;10.76;95.53;99142.66;10220960;29;20055;-65
2024/02/11 15:54:14;;;;;;;1999.90;999.90;;;;;;;10.84;96.06;99147.22;10219680;29;20127;-65
2024/02/11 15:59:17;;;;;;;1999.90;999.90;;;;;;;10.82;96.71;99143.91;10219661;29;20376;-65
2024/02/11 16:04:20;;;;;;;1999.90;999.90;;;;;;;10.53;97.37;99149.81;10220486;29;20055;-65
2024/02/11 16:09:22;;;;;;;1999.90;999.90;;;;;;;10.75;96.10;99150.63;10218953;29;20483;-65
2024/02/11 16:14:25;;;;;;;1999.90;999.90;;;;;;;10.76;99.12;99155.75;10219603;29;20056;-66
2024/02/11 16:19:27;;;;;;;1999.90;999.90;;;;;;;10.66;100.00;99160.09;10218569;29;20052;-65
2024/02/11 16:24:37;;;;;;;1999.90;999.90;;;;;;;10.65;100.00;99166.28;10219227;29;20052;-65
2024/02/11 16:29:40;;;;;;;1999.90;999.90;;;;;;;10.74;98.64;99168.13;10218933;29;20048;-65
2024/02/11 16:34:45;;;;;;;1999.90;999.90;;;;;;;10.61;100.00;99172.75;10218183;29;20082;-66
2024/02/11 16:39:48;;;;;;;1999.90;999.90;;;;;;;10.44;100.00;99179.38;10218514;29;20051;-66
2024/02/11 16:44:50;;;;;;;1999.90;999.90;;;;;;;10.36;100.00;99184.41;10218395;29;20130;-66
2024/02/11 16:49:53;;;;;;;1999.90;999.90;;;;;;;10.19;100.00;99183.13;10217082;29;20404;-65
2024/02/11 16:54:55;;;;;;;1999.90;999.90;;;;;;;10.17;100.00;99198.09;10218122;29;20055;-65
2024/02/11 16:59:58;;;;;;;1999.90;999.90;;;;;;;10.28;100.00;99210.31;10217777;29;20066;-66
2024/02/11 17:05:00;;;;;;;1999.90;999.90;;;;;;;10.12;100.00;99210.72;10217798;29;20147;-66
2024/02/11 17:10:05;;;;;;;1999.90;999.90;;;;;;;10.01;100.00;99208.97;10217120;29;20139;-66
2024/02/11 17:15:08;;;;;;;1999.90;999.90;;;;;;;9.73;100.00;99229.47;10217275;29;20067;-66
2024/02/11 17:20:15;;;;;;;1999.90;999.90;;;;;;;9.98;100.00;99223.13;10216358;29;20138;-68
2024/02/11 17:25:18;;;;;;;1999.90;999.90;;;;;;;9.65;100.00;99240.53;10216965;29;20059;-65
2024/02/11 17:30:21;;;;;;;1999.90;999.90;;;;;;;9.78;100.00;99250.03;10216186;29;20476;-66
2024/02/11 17:35:25;;;;;;;1999.90;999.90;;;;;;;9.48;100.00;99257.53;10214704;29;20384;-66
2024/02/11 17:40:29;;;;;;;1999.90;999.90;;;;;;;9.21;100.00;99255.25;10215628;29;20511;-66
2024/02/11 17:45:32;;;;;;;1999.90;999.90;;;;;;;9.11;100.00;99268.19;10214396;29;20048;-65
2024/02/11 17:50:35;;;;;;;1999.90;999.90;;;;;;;8.93;100.00;99275.59;10216103;29;20075;-68
2024/02/11 17:55:42;;;;;;;1999.90;999.90;;;;;;;8.69;100.00;99273.06;10215635;29;20090;-68
2024/02/11 18:00:46;;;;;;;1999.90;999.90;;;;;;;8.68;100.00;99288.81;10213698;29;20047;-68
2024/02/11 18:06:00;;;;;;;1999.90;999.90;;;;;;;8.50;100.00;99291.81;10214789;29;20566;-66
2024/02/11 18:11:09;;;;;;;1999.90;999.90;;;;;;;8.43;100.00;99292.38;10214771;29;20052;-65
2024/02/11 18:16:12;;;;;;;1999.90;999.90;;;;;;;8.47;100.00;99292.06;10215361;29;20055;-69
2024/02/11 18:21:15;;;;;;;1999.90;999.90;;;;;;;8.43;100.00;99301.03;10214864;29;20130;-68
2024/02/11 18:26:18;;;;;;;1999.90;999.90;;;;;;;8.53;100.00;99296.81;10214328;29;20600;-68
2024/02/11 18:31:22;;;;;;;1999.90;999.90;;;;;;;8.77;100.00;99308.19;10214858;29;20044;-68
2024/02/11 18:36:24;;;;;;;1999.90;999.90;;;;;;;8.71;100.00;99312.09;10214757;29;20139;-66
2024/02/11 18:41:27;;;;;;;1999.90;999.90;;;;;;;8.53;100.00;99315.06;10214614;29;20377;-65
2024/02/11 18:46:29;;;;;;;1999.90;999.90;;;;;;;8.63;100.00;99322.25;10213532;29;20139;-66
2024/02/11 18:51:35;;;;;;;1999.90;999.90;;;;;;;8.81;100.00;99333.94;10214398;29;20526;-66
2024/02/11 18:56:38;;;;;;;1999.90;999.90;;;;;;;8.83;100.00;99333.84;10213738;29;20407;-66
2024/02/11 19:01:40;;;;;;;1999.90;999.90;;;;;;;8.67;100.00;99341.94;10214378;29;20051;-65
2024/02/11 19:06:44;;;;;;;1999.90;999.90;;;;;;;8.69;100.00;99338.28;10214135;29;20103;-65
2024/02/11 19:11:46;;;;;;;1999.90;999.90;;;;;;;8.82;100.00;99345.22;10215968;29;20134;-67
2024/02/11 19:16:48;;;;;;;1999.90;999.90;;;;;;;8.82;100.00;99356.47;10221623;29;20078;-66
2024/02/11 19:21:51;;;;;;;1999.90;999.90;;;;;;;8.65;100.00;99369.91;10221658;29;20055;-66
2024/02/11 19:26:53;;;;;;;1999.90;999.90;;;;;;;8.74;100.00;99367.50;10220248;29;20095;-66
2024/02/11 19:31:56;;;;;;;1999.90;999.90;;;;;;;8.80;100.00;99373.19;10221239;29;20139;-66
2024/02/11 19:36:59;;;;;;;1999.90;999.90;;;;;;;9.05;100.00;99364.41;10220322;29;20483;-65
2024/02/11 19:42:01;;;;;;;1999.90;999.90;;;;;;;8.96;100.00;99367.69;10220952;29;20062;-65
2024/02/11 19:47:05;;;;;;;1999.90;999.90;;;;;;;8.82;100.00;99377.34;10220642;29;20072;-66
2024/02/11 19:52:09;;;;;;;1999.90;999.90;;;;;;;9.03;100.00;99374.13;10219849;29;20491;-65
2024/02/11 19:57:15;;;;;;;1999.90;999.90;;;;;;;9.00;100.00;99375.19;10219007;29;20043;-66
2024/02/11 20:02:17;;;;;;;1999.90;999.90;;;;;;;8.87;100.00;99377.03;10220077;29;20054;-66
2024/02/11 20:07:22;;;;;;;1999.90;999.90;;;;;;;8.63;100.00;99387.47;10219513;29;20499;-66
2024/02/11 20:12:24;;;;;;;1999.90;999.90;;;;;;;8.26;100.00;99405.69;10218022;29;20062;-66
2024/02/11 20:17:27;;;;;;;1999.90;999.90;;;;;;;8.17;100.00;99412.38;10219439;29;20054;-65
2024/02/11 20:22:30;;;;;;;1999.90;999.90;;;;;;;8.02;100.00;99414.28;10218475;29;20051;-66
2024/02/11 20:27:32;;;;;;;1999.90;999.90;;;;;;;8.09;100.00;99422.50;10218456;29;20158;-66
2024/02/11 20:32:35;;;;;;;1999.90;999.90;;;;;;;8.13;100.00;99421.34;10218307;29;20091;-65
2024/02/11 20:37:39;;;;;;;1999.90;999.90;;;;;;;8.42;100.00;99426.31;10218722;29;20048;-65
2024/02/11 20:42:44;;;;;;;1999.90;999.90;;;;;;;8.24;100.00;99428.41;10218193;29;20422;-65
2024/02/11 20:47:47;;;;;;;1999.90;999.90;;;;;;;8.40;100.00;99439.44;10217699;29;20044;-65
2024/02/11 20:52:49;;;;;;;1999.90;999.90;;;;;;;8.48;100.00;99450.22;10218195;29;20133;-65
2024/02/11 20:57:52;;;;;;;1999.90;999.90;;;;;;;8.50;100.00;99452.72;10216180;29;20554;-65
2024/02/11 21:02:55;;;;;;;1999.90;999.90;;;;;;;8.65;100.00;99450.81;10217820;29;20075;-65
2024/02/11 21:07:57;;;;;;;1999.90;999.90;;;;;;;8.55;100.00;99458.44;10217632;29;20064;-65
2024/02/11 21:13:00;;;;;;;1999.90;999.90;;;;;;;8.60;100.00;99465.94;10217374;29;20047;-66
2024/02/11 21:18:03;;;;;;;1999.90;999.90;;;;;;;8.58;100.00;99473.06;10217210;29;20135;-66
2024/02/11 21:23:08;;;;;;;1999.90;999.90;;;;;;;8.64;100.00;99470.00;10216981;29;20144;-65
2024/02/11 21:28:10;;;;;;;1999.90;999.90;;;;;;;8.48;100.00;99480.69;10217424;29;20054;-66
2024/02/11 21:33:12;;;;;;;1999.90;999.90;;;;;;;8.58;100.00;99486.94;10216551;29;20077;-66
2024/02/11 21:38:16;;;;;;;1999.90;999.90;;;;;;;8.67;100.00;99486.28;10214647;29;20546;-66
2024/02/11 21:43:19;;;;;;;1999.90;999.90;;;;;;;8.61;100.00;99483.25;10216298;29;20075;-66
2024/02/11 21:48:24;;;;;;;1999.90;999.90;;;;;;;8.37;100.00;99487.44;10216621;29;20138;-65
2024/02/11 21:53:27;;;;;;;1999.90;999.90;;;;;;;8.58;100.00;99489.53;10215872;29;20052;-66
2024/02/11 21:58:30;;;;;;;1999.90;999.90;;;;;;;8.56;100.00;99499.25;10214999;29;20510;-65
2024/02/11 22:03:32;;;;;;;1999.90;999.90;;;;;;;8.71;100.00;99503.41;10215666;29;20065;-65
2024/02/11 22:08:34;;;;;;;1999.90;999.90;;;;;;;8.59;100.00;99509.47;10214855;29;20555;-66